sensor_id;sensor_type;location;lat;lon;timestamp;temperature;humidity
1179;DHT22;578;48.408;10.004;2023-11-19T00:01:12;6.20;99.90
1179;DHT22;578;48.408;10.004;2023-11-19T00:03:14;6.20;99.90
1179;DHT22;578;48.408;10.004;2023-11-19T00:05:15;6.10;99.90
1179;DHT22;578;48.408;10.004;2023-11-19T00:07:17;6.10;99.90
1179;DHT22;578;48.408;10.004;2023-11-19T00:09:19;6.20;99.90
1179;DHT22;578;48.408;10.004;2023-11-19T00:11:20;6.20;99.90
1179;DHT22;578;48.408;10.004;2023-11-19T00:13:22;6.20;99.90
1179;DHT22;578;48.408;10.004;2023-11-19T00:15:28;6.20;99.90
1179;DHT22;578;48.408;10.004;2023-11-19T00:17:29;6.20;99.90
1179;DHT22;578;48.408;10.004;2023-11-19T00:19:30;6.20;99.90
1179;DHT22;578;48.408;10.004;2023-11-19T00:21:32;6.20;99.90
1179;DHT22;578;48.408;10.004;2023-11-19T00:23:34;6.20;99.90
1179;DHT22;578;48.408;10.004;2023-11-19T00:25:36;6.20;99.90
1179;DHT22;578;48.408;10.004;2023-11-19T00:27:39;6.20;99.90
1179;DHT22;578;48.408;10.004;2023-11-19T00:29:41;6.20;99.90
1179;DHT22;578;48.408;10.004;2023-11-19T00:31:44;6.20;99.90
1179;DHT22;578;48.408;10.004;2023-11-19T00:33:45;6.20;99.90
1179;DHT22;578;48.408;10.004;2023-11-19T00:35:46;6.20;99.90
1179;DHT22;578;48.408;10.004;2023-11-19T00:37:49;6.20;99.90
1179;DHT22;578;48.408;10.004;2023-11-19T00:39:51;6.20;99.90
1179;DHT22;578;48.408;10.004;2023-11-19T00:41:52;6.20;99.90
1179;DHT22;578;48.408;10.004;2023-11-19T00:43:54;6.20;99.90
1179;DHT22;578;48.408;10.004;2023-11-19T00:45:56;6.30;99.90
1179;DHT22;578;48.408;10.004;2023-11-19T00:47:59;6.30;99.90
1179;DHT22;578;48.408;10.004;2023-11-19T00:50:01;6.30;99.90
1179;DHT22;578;48.408;10.004;2023-11-19T00:52:02;6.30;99.90
1179;DHT22;578;48.408;10.004;2023-11-19T00:54:04;6.30;99.90
1179;DHT22;578;48.408;10.004;2023-11-19T00:56:07;6.30;99.90
1179;DHT22;578;48.408;10.004;2023-11-19T00:58:09;6.40;99.90
1179;DHT22;578;48.408;10.004;2023-11-19T01:00:12;6.40;99.90
1179;DHT22;578;48.408;10.004;2023-11-19T01:02:18;6.40;99.90
1179;DHT22;578;48.408;10.004;2023-11-19T01:04:22;6.40;99.90
1179;DHT22;578;48.408;10.004;2023-11-19T01:06:29;6.40;99.90
1179;DHT22;578;48.408;10.004;2023-11-19T01:08:31;6.40;99.90
1179;DHT22;578;48.408;10.004;2023-11-19T01:10:33;6.40;99.90
1179;DHT22;578;48.408;10.004;2023-11-19T01:12:34;6.40;99.90
1179;DHT22;578;48.408;10.004;2023-11-19T01:14:36;6.40;99.90
1179;DHT22;578;48.408;10.004;2023-11-19T01:16:37;6.40;99.90
1179;DHT22;578;48.408;10.004;2023-11-19T01:18:39;6.50;99.90
1179;DHT22;578;48.408;10.004;2023-11-19T01:20:42;6.50;99.90
1179;DHT22;578;48.408;10.004;2023-11-19T01:22:44;6.50;99.90
1179;DHT22;578;48.408;10.004;2023-11-19T01:24:46;6.50;99.90
1179;DHT22;578;48.408;10.004;2023-11-19T01:26:48;6.50;99.90
1179;DHT22;578;48.408;10.004;2023-11-19T01:28:49;6.50;99.90
1179;DHT22;578;48.408;10.004;2023-11-19T01:30:53;6.50;99.90
1179;DHT22;578;48.408;10.004;2023-11-19T01:32:55;6.50;99.90
1179;DHT22;578;48.408;10.004;2023-11-19T01:34:57;6.50;99.90
1179;DHT22;578;48.408;10.004;2023-11-19T01:36:59;6.60;99.90
1179;DHT22;578;48.408;10.004;2023-11-19T01:39:01;6.60;99.90
1179;DHT22;578;48.408;10.004;2023-11-19T01:41:04;6.60;99.90
1179;DHT22;578;48.408;10.004;2023-11-19T01:43:05;6.70;99.90
1179;DHT22;578;48.408;10.004;2023-11-19T01:45:08;6.60;99.90
1179;DHT22;578;48.408;10.004;2023-11-19T01:47:10;6.60;99.90
1179;DHT22;578;48.408;10.004;2023-11-19T01:49:11;6.70;99.90
1179;DHT22;578;48.408;10.004;2023-11-19T01:51:14;6.70;99.90
1179;DHT22;578;48.408;10.004;2023-11-19T01:53:18;6.70;99.90
1179;DHT22;578;48.408;10.004;2023-11-19T01:55:21;6.70;99.90
1179;DHT22;578;48.408;10.004;2023-11-19T01:57:23;6.80;99.90
1179;DHT22;578;48.408;10.004;2023-11-19T01:59:26;6.80;99.90
1179;DHT22;578;48.408;10.004;2023-11-19T02:01:28;6.80;99.90
1179;DHT22;578;48.408;10.004;2023-11-19T02:03:31;6.80;99.90
1179;DHT22;578;48.408;10.004;2023-11-19T02:05:33;6.80;99.90
1179;DHT22;578;48.408;10.004;2023-11-19T02:07:35;6.80;99.90
1179;DHT22;578;48.408;10.004;2023-11-19T02:09:38;6.90;99.90
1179;DHT22;578;48.408;10.004;2023-11-19T02:11:40;6.90;99.90
1179;DHT22;578;48.408;10.004;2023-11-19T02:13:42;6.90;99.90
1179;DHT22;578;48.408;10.004;2023-11-19T02:15:45;6.90;99.90
1179;DHT22;578;48.408;10.004;2023-11-19T02:17:47;6.90;99.90
1179;DHT22;578;48.408;10.004;2023-11-19T02:19:49;6.90;99.90
1179;DHT22;578;48.408;10.004;2023-11-19T02:21:50;6.90;99.90
1179;DHT22;578;48.408;10.004;2023-11-19T02:23:52;6.90;99.90
1179;DHT22;578;48.408;10.004;2023-11-19T02:26:02;6.90;99.90
1179;DHT22;578;48.408;10.004;2023-11-19T02:28:07;6.90;99.90
1179;DHT22;578;48.408;10.004;2023-11-19T02:30:11;6.90;99.90
1179;DHT22;578;48.408;10.004;2023-11-19T02:32:15;6.90;99.90
1179;DHT22;578;48.408;10.004;2023-11-19T02:34:17;6.90;99.90
1179;DHT22;578;48.408;10.004;2023-11-19T02:36:19;7.00;99.90
1179;DHT22;578;48.408;10.004;2023-11-19T02:38:22;7.00;99.90
1179;DHT22;578;48.408;10.004;2023-11-19T02:40:24;7.00;99.90
1179;DHT22;578;48.408;10.004;2023-11-19T02:42:25;7.00;99.90
1179;DHT22;578;48.408;10.004;2023-11-19T02:44:28;7.00;99.90
1179;DHT22;578;48.408;10.004;2023-11-19T02:46:31;7.00;99.90
1179;DHT22;578;48.408;10.004;2023-11-19T02:48:33;7.10;99.90
1179;DHT22;578;48.408;10.004;2023-11-19T02:50:36;7.10;99.90
1179;DHT22;578;48.408;10.004;2023-11-19T02:52:38;7.10;99.90
1179;DHT22;578;48.408;10.004;2023-11-19T02:54:39;7.10;99.90
1179;DHT22;578;48.408;10.004;2023-11-19T02:56:42;7.10;99.90
1179;DHT22;578;48.408;10.004;2023-11-19T02:58:44;7.10;99.90
1179;DHT22;578;48.408;10.004;2023-11-19T03:00:48;7.20;99.90
1179;DHT22;578;48.408;10.004;2023-11-19T03:02:55;7.20;99.90
1179;DHT22;578;48.408;10.004;2023-11-19T03:05:00;7.20;99.90
1179;DHT22;578;48.408;10.004;2023-11-19T03:07:02;7.20;99.90
1179;DHT22;578;48.408;10.004;2023-11-19T03:09:04;7.20;99.90
1179;DHT22;578;48.408;10.004;2023-11-19T03:11:08;7.30;99.90
1179;DHT22;578;48.408;10.004;2023-11-19T03:13:12;7.30;99.90
1179;DHT22;578;48.408;10.004;2023-11-19T03:15:15;7.20;99.90
1179;DHT22;578;48.408;10.004;2023-11-19T03:17:18;7.30;99.90
1179;DHT22;578;48.408;10.004;2023-11-19T03:19:20;7.30;99.90
1179;DHT22;578;48.408;10.004;2023-11-19T03:21:27;7.40;99.90
1179;DHT22;578;48.408;10.004;2023-11-19T03:23:29;7.40;99.90
1179;DHT22;578;48.408;10.004;2023-11-19T03:25:31;7.30;99.90
1179;DHT22;578;48.408;10.004;2023-11-19T03:27:35;7.40;99.90
1179;DHT22;578;48.408;10.004;2023-11-19T03:29:37;7.40;99.90
1179;DHT22;578;48.408;10.004;2023-11-19T03:31:42;7.40;99.90
1179;DHT22;578;48.408;10.004;2023-11-19T03:33:45;7.40;99.90
1179;DHT22;578;48.408;10.004;2023-11-19T03:35:47;7.50;99.90
1179;DHT22;578;48.408;10.004;2023-11-19T03:37:49;7.50;99.90
1179;DHT22;578;48.408;10.004;2023-11-19T03:39:50;7.50;99.90
1179;DHT22;578;48.408;10.004;2023-11-19T03:41:52;7.50;99.90
1179;DHT22;578;48.408;10.004;2023-11-19T03:43:55;7.50;99.90
1179;DHT22;578;48.408;10.004;2023-11-19T03:45:57;7.50;99.90
1179;DHT22;578;48.408;10.004;2023-11-19T03:47:59;7.50;99.90
1179;DHT22;578;48.408;10.004;2023-11-19T03:50:03;7.60;99.90
1179;DHT22;578;48.408;10.004;2023-11-19T03:52:05;7.50;99.90
1179;DHT22;578;48.408;10.004;2023-11-19T03:54:07;7.50;99.90
1179;DHT22;578;48.408;10.004;2023-11-19T03:56:09;7.60;99.90
1179;DHT22;578;48.408;10.004;2023-11-19T03:58:11;7.60;99.90
1179;DHT22;578;48.408;10.004;2023-11-19T04:00:14;7.60;99.90
1179;DHT22;578;48.408;10.004;2023-11-19T04:02:15;7.60;99.90
1179;DHT22;578;48.408;10.004;2023-11-19T04:04:17;7.60;99.90
1179;DHT22;578;48.408;10.004;2023-11-19T04:06:20;7.70;99.90
1179;DHT22;578;48.408;10.004;2023-11-19T04:08:22;7.60;99.90
1179;DHT22;578;48.408;10.004;2023-11-19T04:10:24;7.70;99.90
1179;DHT22;578;48.408;10.004;2023-11-19T04:12:25;7.60;99.90
1179;DHT22;578;48.408;10.004;2023-11-19T04:14:27;7.70;99.90
1179;DHT22;578;48.408;10.004;2023-11-19T04:16:28;7.70;99.90
1179;DHT22;578;48.408;10.004;2023-11-19T04:18:30;7.70;99.90
1179;DHT22;578;48.408;10.004;2023-11-19T04:20:32;7.70;99.90
1179;DHT22;578;48.408;10.004;2023-11-19T04:22:35;7.70;99.90
1179;DHT22;578;48.408;10.004;2023-11-19T04:24:37;7.70;99.90
1179;DHT22;578;48.408;10.004;2023-11-19T04:26:40;7.70;99.90
1179;DHT22;578;48.408;10.004;2023-11-19T04:28:42;7.70;99.90
1179;DHT22;578;48.408;10.004;2023-11-19T04:30:44;7.70;99.90
1179;DHT22;578;48.408;10.004;2023-11-19T04:32:46;7.70;99.90
1179;DHT22;578;48.408;10.004;2023-11-19T04:34:51;7.80;99.90
1179;DHT22;578;48.408;10.004;2023-11-19T04:36:52;7.70;99.90
1179;DHT22;578;48.408;10.004;2023-11-19T04:38:54;7.70;99.90
1179;DHT22;578;48.408;10.004;2023-11-19T04:40:56;7.80;99.90
1179;DHT22;578;48.408;10.004;2023-11-19T04:42:58;7.80;99.90
1179;DHT22;578;48.408;10.004;2023-11-19T04:45:00;7.80;99.90
1179;DHT22;578;48.408;10.004;2023-11-19T04:47:01;7.80;99.90
1179;DHT22;578;48.408;10.004;2023-11-19T04:49:03;7.70;99.90
1179;DHT22;578;48.408;10.004;2023-11-19T04:51:05;7.80;99.90
1179;DHT22;578;48.408;10.004;2023-11-19T04:53:09;7.80;99.90
1179;DHT22;578;48.408;10.004;2023-11-19T04:55:12;7.80;99.90
1179;DHT22;578;48.408;10.004;2023-11-19T04:57:15;7.80;99.90
1179;DHT22;578;48.408;10.004;2023-11-19T04:59:16;7.80;99.90
1179;DHT22;578;48.408;10.004;2023-11-19T05:01:18;7.80;99.90
1179;DHT22;578;48.408;10.004;2023-11-19T05:03:21;7.80;99.90
1179;DHT22;578;48.408;10.004;2023-11-19T05:05:23;7.80;99.90
1179;DHT22;578;48.408;10.004;2023-11-19T05:07:25;7.80;99.90
1179;DHT22;578;48.408;10.004;2023-11-19T05:09:27;7.80;99.90
1179;DHT22;578;48.408;10.004;2023-11-19T05:11:30;7.80;99.90
1179;DHT22;578;48.408;10.004;2023-11-19T05:13:31;7.80;99.90
1179;DHT22;578;48.408;10.004;2023-11-19T05:15:33;7.80;99.90
1179;DHT22;578;48.408;10.004;2023-11-19T05:17:35;7.80;99.90
1179;DHT22;578;48.408;10.004;2023-11-19T05:19:37;7.90;99.90
1179;DHT22;578;48.408;10.004;2023-11-19T05:21:41;7.80;99.90
1179;DHT22;578;48.408;10.004;2023-11-19T05:23:44;7.80;99.90
1179;DHT22;578;48.408;10.004;2023-11-19T05:25:45;7.80;99.90
1179;DHT22;578;48.408;10.004;2023-11-19T05:27:49;7.80;99.90
1179;DHT22;578;48.408;10.004;2023-11-19T05:29:51;7.80;99.90
1179;DHT22;578;48.408;10.004;2023-11-19T05:31:53;7.80;99.90
1179;DHT22;578;48.408;10.004;2023-11-19T05:33:55;7.80;99.90
1179;DHT22;578;48.408;10.004;2023-11-19T05:35:56;7.80;99.90
1179;DHT22;578;48.408;10.004;2023-11-19T05:37:58;7.80;99.90
1179;DHT22;578;48.408;10.004;2023-11-19T05:40:00;7.80;99.90
1179;DHT22;578;48.408;10.004;2023-11-19T05:42:04;7.80;99.90
1179;DHT22;578;48.408;10.004;2023-11-19T05:44:07;7.80;99.90
1179;DHT22;578;48.408;10.004;2023-11-19T05:46:09;7.80;99.90
1179;DHT22;578;48.408;10.004;2023-11-19T05:48:11;7.80;99.90
1179;DHT22;578;48.408;10.004;2023-11-19T05:50:12;7.80;99.90
1179;DHT22;578;48.408;10.004;2023-11-19T05:52:14;7.80;99.90
1179;DHT22;578;48.408;10.004;2023-11-19T05:54:17;7.90;99.90
1179;DHT22;578;48.408;10.004;2023-11-19T05:56:19;7.90;99.90
1179;DHT22;578;48.408;10.004;2023-11-19T05:58:24;7.80;99.90
1179;DHT22;578;48.408;10.004;2023-11-19T06:00:27;7.80;99.90
1179;DHT22;578;48.408;10.004;2023-11-19T06:02:29;7.80;99.90
1179;DHT22;578;48.408;10.004;2023-11-19T06:04:32;7.80;99.90
1179;DHT22;578;48.408;10.004;2023-11-19T06:06:33;7.80;99.90
1179;DHT22;578;48.408;10.004;2023-11-19T06:08:35;7.90;99.90
1179;DHT22;578;48.408;10.004;2023-11-19T06:10:38;7.90;99.90
1179;DHT22;578;48.408;10.004;2023-11-19T06:12:40;7.90;99.90
1179;DHT22;578;48.408;10.004;2023-11-19T06:14:42;7.90;99.90
1179;DHT22;578;48.408;10.004;2023-11-19T06:16:44;7.90;99.90
1179;DHT22;578;48.408;10.004;2023-11-19T06:18:46;7.90;99.90
1179;DHT22;578;48.408;10.004;2023-11-19T06:20:47;8.00;99.90
1179;DHT22;578;48.408;10.004;2023-11-19T06:22:50;8.00;99.90
1179;DHT22;578;48.408;10.004;2023-11-19T06:24:52;8.00;99.90
1179;DHT22;578;48.408;10.004;2023-11-19T06:26:53;8.00;99.90
1179;DHT22;578;48.408;10.004;2023-11-19T06:28:55;8.00;99.90
1179;DHT22;578;48.408;10.004;2023-11-19T06:30:57;8.00;99.90
1179;DHT22;578;48.408;10.004;2023-11-19T06:33:00;8.00;99.90
1179;DHT22;578;48.408;10.004;2023-11-19T06:35:02;8.10;99.90
1179;DHT22;578;48.408;10.004;2023-11-19T06:37:05;8.10;99.90
1179;DHT22;578;48.408;10.004;2023-11-19T06:39:07;8.10;99.90
1179;DHT22;578;48.408;10.004;2023-11-19T06:41:10;8.20;99.90
1179;DHT22;578;48.408;10.004;2023-11-19T06:43:12;8.10;99.90
1179;DHT22;578;48.408;10.004;2023-11-19T06:45:14;8.20;99.90
1179;DHT22;578;48.408;10.004;2023-11-19T06:47:16;8.20;99.90
1179;DHT22;578;48.408;10.004;2023-11-19T06:49:19;8.20;99.90
1179;DHT22;578;48.408;10.004;2023-11-19T06:51:21;8.30;99.90
1179;DHT22;578;48.408;10.004;2023-11-19T06:53:21;8.30;99.90
1179;DHT22;578;48.408;10.004;2023-11-19T06:55:23;8.30;99.90
1179;DHT22;578;48.408;10.004;2023-11-19T06:57:25;8.30;99.90
1179;DHT22;578;48.408;10.004;2023-11-19T06:59:28;8.40;99.90
1179;DHT22;578;48.408;10.004;2023-11-19T07:01:34;8.40;99.90
1179;DHT22;578;48.408;10.004;2023-11-19T07:03:37;8.40;99.90
1179;DHT22;578;48.408;10.004;2023-11-19T07:05:40;8.50;99.90
1179;DHT22;578;48.408;10.004;2023-11-19T07:07:42;8.40;99.90
1179;DHT22;578;48.408;10.004;2023-11-19T07:09:44;8.50;99.90
1179;DHT22;578;48.408;10.004;2023-11-19T07:11:44;8.50;99.90
1179;DHT22;578;48.408;10.004;2023-11-19T07:13:47;8.50;99.90
1179;DHT22;578;48.408;10.004;2023-11-19T07:15:47;8.50;99.90
1179;DHT22;578;48.408;10.004;2023-11-19T07:17:49;8.60;99.90
1179;DHT22;578;48.408;10.004;2023-11-19T07:19:51;8.60;99.90
1179;DHT22;578;48.408;10.004;2023-11-19T07:21:54;8.60;99.90
1179;DHT22;578;48.408;10.004;2023-11-19T07:23:56;8.60;99.90
1179;DHT22;578;48.408;10.004;2023-11-19T07:25:58;8.60;99.90
1179;DHT22;578;48.408;10.004;2023-11-19T07:28:00;8.60;99.90
1179;DHT22;578;48.408;10.004;2023-11-19T07:30:06;8.70;99.90
1179;DHT22;578;48.408;10.004;2023-11-19T07:32:08;8.70;99.90
1179;DHT22;578;48.408;10.004;2023-11-19T07:34:10;8.70;99.90
1179;DHT22;578;48.408;10.004;2023-11-19T07:36:12;8.80;99.90
1179;DHT22;578;48.408;10.004;2023-11-19T07:38:16;8.80;99.90
1179;DHT22;578;48.408;10.004;2023-11-19T07:40:18;8.80;99.90
1179;DHT22;578;48.408;10.004;2023-11-19T07:42:20;8.90;99.90
1179;DHT22;578;48.408;10.004;2023-11-19T07:44:22;8.80;99.90
1179;DHT22;578;48.408;10.004;2023-11-19T07:46:24;8.90;99.90
1179;DHT22;578;48.408;10.004;2023-11-19T07:48:25;8.90;99.90
1179;DHT22;578;48.408;10.004;2023-11-19T07:50:27;8.90;99.90
1179;DHT22;578;48.408;10.004;2023-11-19T07:52:28;8.90;99.90
1179;DHT22;578;48.408;10.004;2023-11-19T07:54:31;8.90;99.90
1179;DHT22;578;48.408;10.004;2023-11-19T07:56:33;9.00;99.90
1179;DHT22;578;48.408;10.004;2023-11-19T07:58:36;9.00;99.90
1179;DHT22;578;48.408;10.004;2023-11-19T08:00:38;9.00;99.90
1179;DHT22;578;48.408;10.004;2023-11-19T08:02:41;9.00;99.90
1179;DHT22;578;48.408;10.004;2023-11-19T08:04:42;9.00;99.90
1179;DHT22;578;48.408;10.004;2023-11-19T08:06:46;9.00;99.90
1179;DHT22;578;48.408;10.004;2023-11-19T08:08:48;9.10;99.90
1179;DHT22;578;48.408;10.004;2023-11-19T08:10:50;9.10;99.90
1179;DHT22;578;48.408;10.004;2023-11-19T08:12:53;9.10;99.90
1179;DHT22;578;48.408;10.004;2023-11-19T08:14:55;9.00;99.90
1179;DHT22;578;48.408;10.004;2023-11-19T08:16:58;9.10;99.90
1179;DHT22;578;48.408;10.004;2023-11-19T08:19:00;9.10;99.90
1179;DHT22;578;48.408;10.004;2023-11-19T08:21:04;9.10;99.90
1179;DHT22;578;48.408;10.004;2023-11-19T08:23:06;9.10;99.90
1179;DHT22;578;48.408;10.004;2023-11-19T08:25:08;9.20;99.90
1179;DHT22;578;48.408;10.004;2023-11-19T08:27:12;9.20;99.90
1179;DHT22;578;48.408;10.004;2023-11-19T08:29:13;9.20;99.90
1179;DHT22;578;48.408;10.004;2023-11-19T08:31:15;9.20;99.90
1179;DHT22;578;48.408;10.004;2023-11-19T08:33:17;9.20;99.90
1179;DHT22;578;48.408;10.004;2023-11-19T08:35:19;9.20;99.90
1179;DHT22;578;48.408;10.004;2023-11-19T08:37:21;9.20;99.90
1179;DHT22;578;48.408;10.004;2023-11-19T08:39:23;9.20;99.90
1179;DHT22;578;48.408;10.004;2023-11-19T08:41:24;9.20;99.90
1179;DHT22;578;48.408;10.004;2023-11-19T08:43:28;9.30;99.90
1179;DHT22;578;48.408;10.004;2023-11-19T08:45:31;9.30;99.90
1179;DHT22;578;48.408;10.004;2023-11-19T08:47:33;9.30;99.90
1179;DHT22;578;48.408;10.004;2023-11-19T08:49:35;9.30;99.90
1179;DHT22;578;48.408;10.004;2023-11-19T08:51:36;9.40;99.90
1179;DHT22;578;48.408;10.004;2023-11-19T08:53:37;9.40;99.90
1179;DHT22;578;48.408;10.004;2023-11-19T08:55:39;9.40;99.90
1179;DHT22;578;48.408;10.004;2023-11-19T08:57:41;9.50;99.90
1179;DHT22;578;48.408;10.004;2023-11-19T08:59:44;9.60;99.90
1179;DHT22;578;48.408;10.004;2023-11-19T09:01:46;9.70;99.90
1179;DHT22;578;48.408;10.004;2023-11-19T09:03:48;9.80;99.90
1179;DHT22;578;48.408;10.004;2023-11-19T09:05:50;9.80;99.90
1179;DHT22;578;48.408;10.004;2023-11-19T09:07:52;9.90;99.90
1179;DHT22;578;48.408;10.004;2023-11-19T09:09:53;10.00;99.90
1179;DHT22;578;48.408;10.004;2023-11-19T09:11:56;10.00;99.90
1179;DHT22;578;48.408;10.004;2023-11-19T09:13:57;10.10;99.90
1179;DHT22;578;48.408;10.004;2023-11-19T09:16:01;10.10;99.90
1179;DHT22;578;48.408;10.004;2023-11-19T09:18:04;10.20;99.90
1179;DHT22;578;48.408;10.004;2023-11-19T09:20:07;10.30;99.90
1179;DHT22;578;48.408;10.004;2023-11-19T09:22:09;10.30;99.90
1179;DHT22;578;48.408;10.004;2023-11-19T09:24:11;10.30;99.90
1179;DHT22;578;48.408;10.004;2023-11-19T09:26:11;10.30;99.90
1179;DHT22;578;48.408;10.004;2023-11-19T09:28:13;10.30;99.90
1179;DHT22;578;48.408;10.004;2023-11-19T09:30:15;10.30;99.90
1179;DHT22;578;48.408;10.004;2023-11-19T09:32:19;10.30;99.90
1179;DHT22;578;48.408;10.004;2023-11-19T09:34:20;10.50;99.90
1179;DHT22;578;48.408;10.004;2023-11-19T09:36:22;10.60;99.90
1179;DHT22;578;48.408;10.004;2023-11-19T09:38:24;10.70;99.90
1179;DHT22;578;48.408;10.004;2023-11-19T09:40:26;10.80;99.90
1179;DHT22;578;48.408;10.004;2023-11-19T09:42:28;11.00;99.90
1179;DHT22;578;48.408;10.004;2023-11-19T09:44:32;11.10;99.90
1179;DHT22;578;48.408;10.004;2023-11-19T09:46:34;11.20;99.90
1179;DHT22;578;48.408;10.004;2023-11-19T09:48:38;11.20;99.90
1179;DHT22;578;48.408;10.004;2023-11-19T09:50:40;11.20;99.90
1179;DHT22;578;48.408;10.004;2023-11-19T09:52:43;11.10;99.90
1179;DHT22;578;48.408;10.004;2023-11-19T09:54:45;11.10;99.90
1179;DHT22;578;48.408;10.004;2023-11-19T09:56:48;11.10;99.90
1179;DHT22;578;48.408;10.004;2023-11-19T09:58:49;11.00;99.90
1179;DHT22;578;48.408;10.004;2023-11-19T10:00:51;11.10;99.90
1179;DHT22;578;48.408;10.004;2023-11-19T10:02:54;11.10;99.90
1179;DHT22;578;48.408;10.004;2023-11-19T10:04:59;11.10;99.90
1179;DHT22;578;48.408;10.004;2023-11-19T10:07:03;11.10;99.90
1179;DHT22;578;48.408;10.004;2023-11-19T10:09:05;11.10;99.90
1179;DHT22;578;48.408;10.004;2023-11-19T10:11:07;11.10;99.90
1179;DHT22;578;48.408;10.004;2023-11-19T10:13:08;11.00;99.90
1179;DHT22;578;48.408;10.004;2023-11-19T10:15:17;11.00;99.90
1179;DHT22;578;48.408;10.004;2023-11-19T10:17:20;11.10;99.90
1179;DHT22;578;48.408;10.004;2023-11-19T10:19:21;11.20;99.90
1179;DHT22;578;48.408;10.004;2023-11-19T10:21:25;11.40;99.90
1179;DHT22;578;48.408;10.004;2023-11-19T10:23:28;11.60;99.90
1179;DHT22;578;48.408;10.004;2023-11-19T10:25:30;11.70;99.90
1179;DHT22;578;48.408;10.004;2023-11-19T10:27:34;11.70;99.90
1179;DHT22;578;48.408;10.004;2023-11-19T10:29:36;11.70;99.90
1179;DHT22;578;48.408;10.004;2023-11-19T10:31:38;11.70;99.90
1179;DHT22;578;48.408;10.004;2023-11-19T10:33:40;11.90;99.90
1179;DHT22;578;48.408;10.004;2023-11-19T10:35:53;12.00;99.90
1179;DHT22;578;48.408;10.004;2023-11-19T10:38:00;12.20;99.90
1179;DHT22;578;48.408;10.004;2023-11-19T10:40:02;12.20;99.90
1179;DHT22;578;48.408;10.004;2023-11-19T10:42:15;12.30;99.90
1179;DHT22;578;48.408;10.004;2023-11-19T10:44:31;12.40;99.90
1179;DHT22;578;48.408;10.004;2023-11-19T10:46:38;12.30;99.90
1179;DHT22;578;48.408;10.004;2023-11-19T10:48:40;12.30;99.90
1179;DHT22;578;48.408;10.004;2023-11-19T10:50:44;12.30;99.90
1179;DHT22;578;48.408;10.004;2023-11-19T10:52:47;12.20;99.90
1179;DHT22;578;48.408;10.004;2023-11-19T10:54:51;12.20;99.90
1179;DHT22;578;48.408;10.004;2023-11-19T10:56:59;12.30;99.90
1179;DHT22;578;48.408;10.004;2023-11-19T10:59:00;12.40;99.90
1179;DHT22;578;48.408;10.004;2023-11-19T11:01:09;12.50;99.90
1179;DHT22;578;48.408;10.004;2023-11-19T11:03:16;12.80;99.90
1179;DHT22;578;48.408;10.004;2023-11-19T11:05:19;13.00;99.90
1179;DHT22;578;48.408;10.004;2023-11-19T11:07:22;13.20;99.90
1179;DHT22;578;48.408;10.004;2023-11-19T11:09:26;13.20;99.90
1179;DHT22;578;48.408;10.004;2023-11-19T11:11:28;13.30;99.90
1179;DHT22;578;48.408;10.004;2023-11-19T11:13:31;13.20;99.90
1179;DHT22;578;48.408;10.004;2023-11-19T11:15:34;12.90;99.90
1179;DHT22;578;48.408;10.004;2023-11-19T11:17:36;12.80;99.90
1179;DHT22;578;48.408;10.004;2023-11-19T11:19:42;12.80;99.90
1179;DHT22;578;48.408;10.004;2023-11-19T11:21:50;12.80;99.90
1179;DHT22;578;48.408;10.004;2023-11-19T11:29:20;12.90;99.90
1179;DHT22;578;48.408;10.004;2023-11-19T11:31:35;12.80;99.90
1179;DHT22;578;48.408;10.004;2023-11-19T11:33:58;12.70;99.90
1179;DHT22;578;48.408;10.004;2023-11-19T11:36:10;12.50;99.90
1179;DHT22;578;48.408;10.004;2023-11-19T11:38:15;12.40;99.90
1179;DHT22;578;48.408;10.004;2023-11-19T11:40:18;12.40;99.90
1179;DHT22;578;48.408;10.004;2023-11-19T11:42:37;12.30;99.90
1179;DHT22;578;48.408;10.004;2023-11-19T11:45:00;12.30;99.90
1179;DHT22;578;48.408;10.004;2023-11-19T11:47:01;12.30;99.90
1179;DHT22;578;48.408;10.004;2023-11-19T11:49:03;12.30;99.90
1179;DHT22;578;48.408;10.004;2023-11-19T11:51:05;12.40;99.90
1179;DHT22;578;48.408;10.004;2023-11-19T11:53:13;12.50;99.90
1179;DHT22;578;48.408;10.004;2023-11-19T11:55:14;12.50;99.90
1179;DHT22;578;48.408;10.004;2023-11-19T11:57:16;12.60;99.90
1179;DHT22;578;48.408;10.004;2023-11-19T11:59:20;12.60;99.90
1179;DHT22;578;48.408;10.004;2023-11-19T12:01:21;12.70;99.90
1179;DHT22;578;48.408;10.004;2023-11-19T12:03:27;12.70;99.90
1179;DHT22;578;48.408;10.004;2023-11-19T12:05:28;12.80;99.90
1179;DHT22;578;48.408;10.004;2023-11-19T12:07:30;12.90;99.90
1179;DHT22;578;48.408;10.004;2023-11-19T12:09:32;12.90;99.90
1179;DHT22;578;48.408;10.004;2023-11-19T12:11:33;13.00;99.90
1179;DHT22;578;48.408;10.004;2023-11-19T12:13:55;13.10;99.90
1179;DHT22;578;48.408;10.004;2023-11-19T12:16:10;13.10;99.90
1179;DHT22;578;48.408;10.004;2023-11-19T12:18:19;13.20;99.90
1179;DHT22;578;48.408;10.004;2023-11-19T12:20:22;13.20;99.90
1179;DHT22;578;48.408;10.004;2023-11-19T12:22:24;13.40;99.90
1179;DHT22;578;48.408;10.004;2023-11-19T12:24:26;13.50;99.90
1179;DHT22;578;48.408;10.004;2023-11-19T12:26:35;13.60;99.90
1179;DHT22;578;48.408;10.004;2023-11-19T12:28:36;13.70;99.90
1179;DHT22;578;48.408;10.004;2023-11-19T12:30:39;13.80;99.90
1179;DHT22;578;48.408;10.004;2023-11-19T12:32:43;14.00;99.90
1179;DHT22;578;48.408;10.004;2023-11-19T12:34:45;14.10;99.90
1179;DHT22;578;48.408;10.004;2023-11-19T12:36:47;14.00;99.90
1179;DHT22;578;48.408;10.004;2023-11-19T12:38:49;13.90;99.90
1179;DHT22;578;48.408;10.004;2023-11-19T12:41:03;13.80;99.90
1179;DHT22;578;48.408;10.004;2023-11-19T12:43:05;13.70;99.90
1179;DHT22;578;48.408;10.004;2023-11-19T12:45:07;13.70;99.90
1179;DHT22;578;48.408;10.004;2023-11-19T12:47:11;13.80;99.90
1179;DHT22;578;48.408;10.004;2023-11-19T12:49:14;13.80;99.90
1179;DHT22;578;48.408;10.004;2023-11-19T12:51:16;13.70;99.90
1179;DHT22;578;48.408;10.004;2023-11-19T12:53:18;13.70;99.90
1179;DHT22;578;48.408;10.004;2023-11-19T12:55:27;13.50;99.90
1179;DHT22;578;48.408;10.004;2023-11-19T12:57:39;13.40;99.90
1179;DHT22;578;48.408;10.004;2023-11-19T12:59:42;13.30;99.90
1179;DHT22;578;48.408;10.004;2023-11-19T13:01:54;13.30;99.90
1179;DHT22;578;48.408;10.004;2023-11-19T13:03:55;13.10;99.90
1179;DHT22;578;48.408;10.004;2023-11-19T13:06:03;13.10;99.90
1179;DHT22;578;48.408;10.004;2023-11-19T13:08:06;13.10;99.90
1179;DHT22;578;48.408;10.004;2023-11-19T13:10:09;13.00;99.90
1179;DHT22;578;48.408;10.004;2023-11-19T13:12:13;13.00;99.90
1179;DHT22;578;48.408;10.004;2023-11-19T13:14:16;12.90;99.90
1179;DHT22;578;48.408;10.004;2023-11-19T13:16:18;13.00;99.90
1179;DHT22;578;48.408;10.004;2023-11-19T13:18:19;13.00;99.90
1179;DHT22;578;48.408;10.004;2023-11-19T13:20:21;13.10;99.90
1179;DHT22;578;48.408;10.004;2023-11-19T13:22:24;13.10;99.90
1179;DHT22;578;48.408;10.004;2023-11-19T13:24:26;13.00;99.90
1179;DHT22;578;48.408;10.004;2023-11-19T13:26:28;12.90;99.90
1179;DHT22;578;48.408;10.004;2023-11-19T13:28:29;12.90;99.90
1179;DHT22;578;48.408;10.004;2023-11-19T13:30:31;12.90;99.90
1179;DHT22;578;48.408;10.004;2023-11-19T13:32:32;13.10;99.90
1179;DHT22;578;48.408;10.004;2023-11-19T13:34:34;13.00;99.90
1179;DHT22;578;48.408;10.004;2023-11-19T13:36:36;13.10;99.90